createdAt,value
2022-11-12T00:01:57.177Z,4.50
2022-11-12T00:05:02.869Z,4.03
2022-11-12T00:08:10.016Z,4.67
2022-11-12T00:11:16.450Z,5.43
2022-11-12T00:14:22.692Z,5.97
2022-11-12T00:17:28.772Z,6.43
2022-11-12T00:20:34.638Z,4.27
2022-11-12T00:23:42.126Z,2.90
2022-11-12T00:26:48.114Z,5.27
2022-11-12T00:29:53.883Z,4.10
2022-11-12T00:33:05.068Z,2.93
2022-11-12T00:36:12.351Z,3.97
2022-11-12T00:39:19.588Z,3.50
2022-11-12T00:42:25.690Z,3.57
2022-11-12T00:45:31.403Z,4.57
2022-11-12T00:48:37.067Z,4.30
2022-11-12T00:51:43.696Z,3.47
2022-11-12T00:54:51.199Z,3.60
2022-11-12T00:57:59.402Z,5.27
2022-11-12T01:01:11.237Z,5.13
2022-11-12T01:04:17.429Z,5.63
2022-11-12T01:07:23.283Z,5.17
2022-11-12T01:10:30.259Z,4.90
2022-11-12T01:13:39.957Z,3.63
2022-11-12T01:16:49.110Z,6.13
2022-11-12T01:19:55.001Z,11.27
2022-11-12T01:23:00.832Z,6.53
2022-11-12T01:26:08.960Z,4.57
2022-11-12T01:29:14.920Z,3.40
2022-11-12T01:32:20.786Z,6.33
2022-11-12T01:35:26.789Z,7.30
2022-11-12T01:38:35.145Z,3.60
2022-11-12T01:41:43.330Z,5.13
2022-11-12T01:44:49.250Z,4.77
2022-11-12T01:47:55.953Z,3.57
2022-11-12T01:51:04.652Z,6.17
2022-11-12T01:54:13.714Z,4.77
2022-11-12T01:57:30.625Z,5.03
2022-11-12T02:00:41.018Z,5.40
2022-11-12T02:03:46.927Z,5.67
2022-11-12T02:06:53.538Z,7.87
2022-11-12T02:10:02.982Z,5.07
2022-11-12T02:13:28.153Z,7.90
2022-11-12T02:16:38.051Z,4.10
2022-11-12T02:19:43.682Z,7.00
2022-11-12T02:22:50.867Z,5.30
2022-11-12T02:25:57.089Z,5.47
2022-11-12T02:29:03.445Z,3.47
2022-11-12T02:32:09.791Z,5.33
2022-11-12T02:35:16.050Z,4.83
2022-11-12T02:38:23.804Z,6.67
2022-11-12T02:41:29.752Z,4.77
2022-11-12T02:44:35.726Z,4.37
2022-11-12T02:47:41.894Z,3.67
2022-11-12T02:50:48.617Z,3.77
2022-11-12T02:53:55.906Z,3.77
2022-11-12T02:57:01.942Z,4.93
2022-11-12T03:00:10.909Z,4.03
2022-11-12T03:03:16.529Z,3.97
2022-11-12T03:06:22.352Z,5.27
2022-11-12T03:09:29.462Z,5.63
2022-11-12T03:12:35.511Z,4.50
2022-11-12T03:15:41.568Z,5.97
2022-11-12T03:18:47.336Z,4.23
2022-11-12T03:21:53.237Z,4.93
2022-11-12T03:25:00.593Z,3.60
2022-11-12T03:28:08.712Z,5.37
2022-11-12T03:31:15.053Z,4.07
2022-11-12T03:34:20.886Z,4.90
2022-11-12T03:37:26.772Z,3.57
2022-11-12T03:40:34.992Z,7.50
2022-11-12T03:43:41.125Z,3.23
2022-11-12T03:46:47.387Z,5.10
2022-11-12T03:49:53.296Z,4.80
2022-11-12T03:53:00.865Z,4.57
2022-11-12T03:56:08.318Z,5.50
2022-11-12T03:59:14.164Z,4.93
2022-11-12T04:02:19.991Z,2.67
2022-11-12T04:05:44.197Z,5.27
2022-11-12T04:08:50.054Z,3.27
2022-11-12T04:12:17.212Z,5.10
2022-11-12T04:15:22.880Z,2.87
2022-11-12T04:18:45.902Z,3.60
2022-11-12T04:21:57.289Z,5.43
2022-11-12T04:25:20.470Z,3.90
2022-11-12T04:28:28.137Z,3.57
2022-11-12T04:31:33.436Z,4.07
2022-11-12T04:34:39.243Z,5.40
2022-11-12T04:37:45.659Z,5.27
2022-11-12T04:41:08.662Z,7.30
2022-11-12T04:44:33.377Z,4.10
2022-11-12T04:47:41.284Z,3.03
2022-11-12T04:50:50.736Z,3.70
2022-11-12T04:53:56.638Z,4.17
2022-11-12T04:57:02.421Z,3.07
2022-11-12T05:00:11.941Z,3.33
2022-11-12T05:03:17.737Z,3.37
2022-11-12T05:06:49.057Z,3.87
2022-11-12T05:09:55.056Z,3.87
2022-11-12T05:13:01.488Z,6.60
2022-11-12T05:16:09.023Z,4.10
2022-11-12T05:19:15.057Z,3.57
2022-11-12T05:22:42.770Z,3.20
2022-11-12T05:25:47.498Z,3.40
2022-11-12T05:28:53.356Z,3.53
2022-11-12T05:32:00.469Z,3.20
2022-11-12T05:35:07.326Z,2.80
2022-11-12T05:38:13.238Z,4.20
2022-11-12T05:41:20.242Z,3.03
2022-11-12T05:44:26.661Z,4.60
2022-11-12T05:47:34.043Z,5.13
2022-11-12T05:50:51.628Z,7.17
2022-11-12T05:54:06.586Z,3.63
2022-11-12T05:57:12.481Z,4.37
2022-11-12T06:00:18.691Z,8.00
2022-11-12T06:03:26.350Z,3.90
2022-11-12T06:06:32.406Z,5.73
2022-11-12T06:09:38.208Z,10.20
2022-11-12T06:12:43.992Z,6.53
2022-11-12T06:15:49.932Z,7.93
2022-11-12T06:18:57.202Z,8.53
2022-11-12T06:22:03.391Z,8.20
2022-11-12T06:25:09.437Z,9.90
2022-11-12T06:28:15.327Z,12.47
2022-11-12T06:31:22.170Z,15.20
2022-11-12T06:34:29.305Z,13.07
2022-11-12T06:37:35.278Z,4.17
2022-11-12T06:40:41.130Z,8.30
2022-11-12T06:43:46.834Z,4.20
2022-11-12T06:46:52.553Z,7.07
2022-11-12T06:49:59.898Z,5.53
2022-11-12T06:53:05.798Z,8.03
2022-11-12T06:56:11.721Z,4.43
2022-11-12T06:59:17.546Z,4.43
2022-11-12T07:02:23.359Z,6.50
2022-11-12T07:05:31.197Z,4.40
2022-11-12T07:08:38.783Z,6.90
2022-11-12T07:11:44.844Z,8.77
2022-11-12T07:14:50.842Z,10.27
2022-11-12T07:17:56.462Z,5.37
2022-11-12T07:21:05.929Z,7.90
2022-11-12T07:24:12.062Z,7.40
2022-11-12T07:27:18.302Z,6.77
2022-11-12T07:30:24.041Z,6.67
2022-11-12T07:33:31.416Z,6.47
2022-11-12T07:36:38.837Z,12.40
2022-11-12T07:39:44.962Z,5.93
2022-11-12T07:42:50.676Z,7.00
2022-11-12T07:45:59.308Z,10.20
2022-11-12T07:49:05.742Z,7.77
2022-11-12T07:52:13.065Z,5.83
2022-11-12T07:55:19.175Z,7.83
2022-11-12T07:58:25.949Z,5.70
2022-11-12T08:01:34.181Z,7.53
2022-11-12T08:04:40.411Z,4.87
2022-11-12T08:07:47.791Z,8.60
2022-11-12T08:10:56.418Z,4.70
2022-11-12T08:14:02.933Z,6.37
2022-11-12T08:17:08.710Z,3.83
2022-11-12T08:20:14.700Z,4.83
2022-11-12T08:23:21.965Z,7.07
2022-11-12T08:26:28.137Z,4.70
2022-11-12T08:29:33.928Z,5.85
2022-11-12T08:32:39.613Z,6.97
2022-11-12T08:35:45.927Z,4.57
2022-11-12T08:38:54.828Z,4.32
2022-11-12T08:42:00.549Z,6.65
2022-11-12T08:45:07.540Z,6.68
2022-11-12T08:48:15.161Z,5.65
2022-11-12T08:51:21.171Z,3.85
2022-11-12T08:54:28.764Z,4.20
2022-11-12T08:57:41.306Z,4.18
2022-11-12T09:00:47.404Z,4.43
2022-11-12T09:03:53.210Z,5.32
2022-11-12T09:06:59.354Z,3.78
2022-11-12T09:10:07.949Z,4.82
2022-11-12T09:13:14.407Z,6.20
2022-11-12T09:16:21.280Z,5.30
2022-11-12T09:19:27.154Z,5.75
2022-11-12T09:22:33.440Z,4.45
2022-11-12T09:25:40.956Z,5.53
2022-11-12T09:28:47.117Z,6.28
2022-11-12T09:31:53.044Z,4.18
2022-11-12T09:34:58.968Z,4.90
2022-11-12T09:38:04.893Z,9.00
2022-11-12T09:41:29.386Z,5.53
2022-11-12T09:44:39.877Z,9.52
2022-11-12T09:47:49.786Z,9.07
2022-11-12T09:51:01.333Z,7.35
2022-11-12T09:54:18.709Z,9.10
2022-11-12T09:57:25.899Z,8.05
2022-11-12T10:00:32.372Z,10.20
2022-11-12T10:03:45.111Z,8.55
2022-11-12T10:07:01.054Z,8.43
2022-11-12T10:10:14.340Z,9.40
2022-11-12T10:13:35.771Z,9.85
2022-11-12T10:16:54.418Z,11.40
2022-11-12T10:20:09.424Z,9.32
2022-11-12T10:23:20.913Z,11.05
2022-11-12T10:26:27.811Z,13.80
2022-11-12T10:29:40.879Z,8.73
2022-11-12T10:32:48.755Z,13.95
2022-11-12T10:35:54.882Z,10.10
2022-11-12T10:39:00.825Z,10.55
2022-11-12T10:42:10.057Z,10.25
2022-11-12T10:45:24.055Z,10.45
2022-11-12T10:48:34.511Z,8.60
2022-11-12T10:51:41.652Z,8.20
2022-11-12T10:54:52.418Z,6.85
2022-11-12T10:58:20.512Z,10.73
2022-11-12T11:01:30.982Z,7.70
2022-11-12T11:04:40.996Z,13.00
2022-11-12T11:07:51.043Z,11.65
2022-11-12T11:11:23.334Z,10.38
2022-11-12T11:14:34.769Z,8.00
2022-11-12T11:17:41.901Z,7.20
2022-11-12T11:20:57.304Z,8.57
2022-11-12T11:24:16.491Z,11.68
2022-11-12T11:27:31.570Z,7.65
2022-11-12T11:30:49.708Z,9.57
2022-11-12T11:34:07.229Z,9.02
2022-11-12T11:37:25.908Z,8.82
2022-11-12T11:40:37.121Z,8.15
2022-11-12T11:43:52.566Z,8.60
2022-11-12T11:47:14.286Z,7.70
2022-11-12T11:50:28.288Z,8.02
2022-11-12T11:53:44.647Z,7.80
2022-11-12T11:56:50.898Z,5.63
2022-11-12T12:00:10.213Z,6.25
2022-11-12T12:03:22.602Z,9.20
2022-11-12T12:06:31.336Z,11.95
2022-11-12T12:09:43.647Z,5.75
2022-11-12T12:13:00.450Z,6.97
2022-11-12T12:16:25.450Z,8.43
2022-11-12T12:19:45.431Z,9.45
2022-11-12T12:23:00.255Z,11.77
2022-11-12T12:26:13.406Z,9.38
2022-11-12T12:29:25.685Z,5.85
2022-11-12T12:32:37.162Z,4.75
2022-11-12T12:35:51.586Z,7.40
2022-11-12T12:39:14.766Z,6.68
2022-11-12T12:42:26.234Z,6.30
2022-11-12T12:45:39.377Z,6.38
2022-11-12T12:48:47.505Z,6.53
2022-11-12T12:51:55.989Z,4.95
2022-11-12T12:55:03.695Z,4.47
2022-11-12T12:58:27.501Z,6.30
2022-11-12T13:01:36.512Z,9.63
2022-11-12T13:04:54.090Z,8.43
2022-11-12T13:08:04.697Z,8.38
2022-11-12T13:11:52.508Z,10.27
2022-11-12T13:15:16.586Z,5.93
2022-11-12T13:19:00.567Z,8.20
2022-11-12T13:22:35.666Z,6.22
2022-11-12T13:25:41.869Z,8.02
2022-11-12T13:29:29.191Z,8.52
2022-11-12T13:32:43.460Z,7.60
2022-11-12T13:35:49.453Z,5.03
2022-11-12T13:39:08.674Z,5.40
2022-11-12T13:42:34.653Z,8.85
2022-11-12T13:45:46.204Z,10.07
2022-11-12T13:49:02.415Z,9.18
2022-11-12T13:52:08.118Z,7.85
2022-11-12T13:55:16.560Z,7.93
2022-11-12T13:58:28.742Z,10.10
2022-11-12T14:01:35.284Z,10.57
2022-11-12T14:04:42.438Z,13.55
2022-11-12T14:07:59.143Z,9.05
2022-11-12T14:11:24.901Z,11.55
2022-11-12T14:14:43.703Z,10.48
2022-11-12T14:17:57.422Z,8.27
2022-11-12T14:21:08.158Z,6.18
2022-11-12T14:24:14.657Z,7.05
2022-11-12T14:27:33.558Z,7.85
2022-11-12T14:30:45.333Z,6.97
2022-11-12T14:33:51.388Z,7.82
2022-11-12T14:37:00.182Z,7.43
2022-11-12T14:40:15.668Z,6.40
2022-11-12T14:43:33.641Z,7.90
2022-11-12T14:46:44.781Z,9.23
2022-11-12T14:49:51.618Z,7.38
2022-11-12T14:53:04.042Z,10.27
2022-11-12T14:56:17.170Z,9.93
2022-11-12T14:59:23.148Z,8.27
2022-11-12T15:02:47.222Z,7.18
2022-11-12T15:05:59.125Z,9.98
2022-11-12T15:09:06.952Z,7.18
2022-11-12T15:12:21.109Z,9.85
2022-11-12T15:15:27.186Z,8.25
2022-11-12T15:18:34.992Z,9.77
2022-11-12T15:21:46.578Z,8.30
2022-11-12T15:24:53.690Z,9.00
2022-11-12T15:28:13.882Z,7.45
2022-11-12T15:31:21.928Z,7.90
2022-11-12T15:34:30.497Z,11.05
2022-11-12T15:37:43.557Z,7.65
2022-11-12T15:40:57.587Z,10.40
2022-11-12T15:44:03.844Z,9.55
2022-11-12T15:47:14.437Z,9.35
2022-11-12T15:50:22.509Z,13.23
2022-11-12T15:53:28.714Z,13.00
2022-11-12T15:56:36.147Z,13.33
2022-11-12T15:59:42.590Z,13.57
2022-11-12T16:02:53.043Z,14.27
2022-11-12T16:06:01.479Z,14.53
2022-11-12T16:09:11.556Z,14.57
2022-11-12T16:12:19.040Z,9.90
2022-11-12T16:15:26.198Z,15.37
2022-11-12T16:18:32.310Z,14.77
2022-11-12T16:21:38.308Z,15.80
2022-11-12T16:24:44.187Z,12.77
2022-11-12T16:27:55.666Z,17.47
2022-11-12T16:31:02.383Z,17.80
2022-11-12T16:34:08.105Z,18.40
2022-11-12T16:37:14.039Z,14.80
2022-11-12T16:40:22.043Z,15.83
2022-11-12T16:43:30.082Z,16.47
2022-11-12T16:46:40.043Z,15.50
2022-11-12T16:49:46.206Z,16.40
2022-11-12T16:52:52.744Z,17.17
2022-11-12T16:55:58.540Z,14.83
2022-11-12T16:59:06.089Z,16.40
2022-11-12T17:02:16.204Z,15.67
2022-11-12T17:05:24.183Z,18.97
2022-11-12T17:08:33.938Z,15.90
2022-11-12T17:11:40.236Z,19.17
2022-11-12T17:14:47.495Z,20.43
2022-11-12T17:17:54.905Z,20.40
2022-11-12T17:21:08.880Z,29.10
2022-11-12T17:24:15.274Z,22.87
2022-11-12T17:27:21.522Z,31.40
2022-11-12T17:30:28.984Z,26.67
2022-11-12T17:33:39.430Z,30.27
2022-11-12T17:36:45.699Z,32.20
2022-11-12T17:39:51.707Z,33.27
2022-11-12T17:42:57.696Z,30.27
2022-11-12T17:46:06.472Z,30.13
2022-11-12T17:49:13.977Z,29.63
2022-11-12T17:52:20.266Z,33.57
2022-11-12T17:55:26.381Z,28.10
2022-11-12T17:58:32.763Z,29.83
2022-11-12T18:01:40.510Z,25.47
2022-11-12T18:04:46.456Z,30.63
2022-11-12T18:07:52.312Z,28.13
2022-11-12T18:10:58.422Z,29.83
2022-11-12T18:14:07.578Z,27.70
2022-11-12T18:17:15.488Z,32.60
2022-11-12T18:20:21.340Z,30.63
2022-11-12T18:23:27.198Z,31.10
2022-11-12T18:26:33.618Z,28.43
2022-11-12T18:29:41.504Z,23.33
2022-11-12T18:32:48.955Z,28.23
2022-11-12T18:36:02.576Z,27.43
2022-11-12T18:39:08.232Z,27.97
2022-11-12T18:42:14.059Z,26.80
2022-11-12T18:45:20.092Z,27.03
2022-11-12T18:48:27.922Z,31.03
2022-11-12T18:51:33.719Z,25.90
2022-11-12T18:54:39.668Z,24.13
2022-11-12T18:57:45.934Z,22.37
2022-11-12T19:00:51.736Z,28.13
2022-11-12T19:03:59.237Z,24.90
2022-11-12T19:07:05.373Z,27.03
2022-11-12T19:10:14.976Z,23.10
2022-11-12T19:13:21.304Z,20.73
2022-11-12T19:16:27.564Z,19.53
2022-11-12T19:19:35.306Z,23.83
2022-11-12T19:22:41.233Z,29.73
2022-11-12T19:25:46.982Z,27.07
2022-11-12T19:28:52.666Z,28.00
2022-11-12T19:31:58.641Z,24.40
2022-11-12T19:35:06.677Z,23.10
2022-11-12T19:38:12.478Z,22.70
2022-11-12T19:41:20.021Z,23.97
2022-11-12T19:44:25.908Z,27.10
2022-11-12T19:47:31.787Z,26.73
2022-11-12T19:50:38.964Z,28.07
2022-11-12T19:53:45.433Z,24.83
2022-11-12T19:56:51.468Z,25.20
2022-11-12T19:59:57.247Z,32.63
2022-11-12T20:03:03.108Z,29.10
2022-11-12T20:06:12.362Z,26.30
2022-11-12T20:09:18.156Z,28.73
2022-11-12T20:12:25.141Z,25.47
2022-11-12T20:15:30.882Z,27.70
2022-11-12T20:18:36.636Z,30.73
2022-11-12T20:21:43.713Z,27.23
2022-11-12T20:24:49.845Z,31.73
2022-11-12T20:27:55.856Z,26.67
2022-11-12T20:31:03.646Z,24.77
2022-11-12T20:34:09.499Z,25.70
2022-11-12T20:37:18.525Z,26.57
2022-11-12T20:40:24.111Z,26.37
2022-11-12T20:43:30.172Z,23.10
2022-11-12T20:46:36.482Z,28.43
2022-11-12T20:49:42.554Z,29.80
2022-11-12T20:52:49.813Z,27.37
2022-11-12T20:55:55.726Z,27.73
2022-11-12T20:59:01.570Z,30.17
2022-11-12T21:02:07.581Z,26.40
2022-11-12T21:05:13.414Z,29.83
2022-11-12T21:08:20.436Z,27.97
2022-11-12T21:11:26.376Z,34.10
2022-11-12T21:14:32.205Z,29.70
2022-11-12T21:17:38.034Z,28.67
2022-11-12T21:20:44.309Z,29.43
2022-11-12T21:23:53.881Z,27.20
2022-11-12T21:26:59.871Z,27.40
2022-11-12T21:30:06.798Z,23.27
2022-11-12T21:33:13.177Z,31.23
2022-11-12T21:36:20.193Z,24.13
2022-11-12T21:39:27.635Z,27.93
2022-11-12T21:42:33.801Z,29.20
2022-11-12T21:45:44.918Z,27.30
2022-11-12T21:48:55.053Z,23.80
2022-11-12T21:52:01.373Z,27.40
2022-11-12T21:55:09.599Z,28.23
2022-11-12T21:58:15.805Z,26.60
2022-11-12T22:01:24.869Z,26.47
2022-11-12T22:04:31.114Z,25.07
2022-11-12T22:07:36.873Z,24.13
2022-11-12T22:10:44.081Z,27.57
2022-11-12T22:13:50.415Z,26.90
2022-11-12T22:16:56.386Z,32.83
2022-11-12T22:20:02.585Z,23.63
2022-11-12T22:23:08.496Z,27.03
2022-11-12T22:26:20.567Z,30.23
2022-11-12T22:29:26.191Z,29.80
2022-11-12T22:32:32.511Z,27.53
2022-11-12T22:35:38.349Z,27.60
2022-11-12T22:38:45.597Z,27.40
2022-11-12T22:41:52.849Z,30.73
2022-11-12T22:44:58.890Z,28.10
2022-11-12T22:48:05.251Z,28.97
2022-11-12T22:51:14.363Z,25.93
2022-11-12T22:54:20.315Z,28.70
2022-11-12T22:57:27.310Z,30.37
2022-11-12T23:00:33.643Z,26.43
2022-11-12T23:03:39.482Z,27.33
2022-11-12T23:06:45.364Z,25.50
2022-11-12T23:09:50.933Z,28.90
2022-11-12T23:12:58.181Z,29.57
2022-11-12T23:16:07.594Z,27.77
2022-11-12T23:19:13.594Z,27.83
2022-11-12T23:22:19.514Z,28.03
2022-11-12T23:25:25.597Z,25.67
2022-11-12T23:28:32.819Z,25.90
2022-11-12T23:31:39.538Z,26.37
2022-11-12T23:34:45.077Z,26.60
2022-11-12T23:37:50.808Z,27.00
2022-11-12T23:40:57.154Z,30.13
2022-11-12T23:44:04.202Z,27.50
2022-11-12T23:47:10.228Z,27.10
2022-11-12T23:50:16.046Z,27.17
2022-11-12T23:53:22.052Z,24.07
2022-11-12T23:56:27.909Z,34.00
2022-11-12T23:59:35.157Z,29.13
